sensor_id;sensor_type;location;lat;lon;timestamp;P1;durP1;ratioP1;P2;durP2;ratioP2
19221;SDS011;9745;50.828;4.378;2023-04-24T00:00:21;17.63;;;11.63;;
19221;SDS011;9745;50.828;4.378;2023-04-24T00:02:47;23.47;;;10.90;;
19221;SDS011;9745;50.828;4.378;2023-04-24T00:05:14;21.13;;;10.67;;
19221;SDS011;9745;50.828;4.378;2023-04-24T00:07:40;20.70;;;10.53;;
19221;SDS011;9745;50.828;4.378;2023-04-24T00:10:07;22.33;;;11.90;;
19221;SDS011;9745;50.828;4.378;2023-04-24T00:12:33;18.83;;;11.10;;
19221;SDS011;9745;50.828;4.378;2023-04-24T00:14:59;21.07;;;10.40;;
19221;SDS011;9745;50.828;4.378;2023-04-24T00:17:25;18.20;;;10.90;;
19221;SDS011;9745;50.828;4.378;2023-04-24T00:19:51;22.30;;;12.53;;
19221;SDS011;9745;50.828;4.378;2023-04-24T00:22:26;20.90;;;11.57;;
19221;SDS011;9745;50.828;4.378;2023-04-24T00:24:52;26.07;;;11.57;;
19221;SDS011;9745;50.828;4.378;2023-04-24T00:27:18;28.70;;;12.00;;
19221;SDS011;9745;50.828;4.378;2023-04-24T00:29:44;19.33;;;11.40;;
19221;SDS011;9745;50.828;4.378;2023-04-24T00:32:10;19.77;;;11.77;;
19221;SDS011;9745;50.828;4.378;2023-04-24T00:34:36;23.47;;;11.73;;
19221;SDS011;9745;50.828;4.378;2023-04-24T00:37:02;20.13;;;11.70;;
19221;SDS011;9745;50.828;4.378;2023-04-24T00:39:28;24.47;;;12.20;;
19221;SDS011;9745;50.828;4.378;2023-04-24T00:41:55;24.93;;;13.40;;
19221;SDS011;9745;50.828;4.378;2023-04-24T00:44:21;23.47;;;11.87;;
19221;SDS011;9745;50.828;4.378;2023-04-24T00:46:48;24.23;;;11.70;;
19221;SDS011;9745;50.828;4.378;2023-04-24T00:49:17;23.03;;;12.67;;
19221;SDS011;9745;50.828;4.378;2023-04-24T00:51:44;18.03;;;10.80;;
19221;SDS011;9745;50.828;4.378;2023-04-24T00:54:10;20.07;;;12.53;;
19221;SDS011;9745;50.828;4.378;2023-04-24T00:56:37;23.00;;;12.20;;
19221;SDS011;9745;50.828;4.378;2023-04-24T00:59:03;25.43;;;11.77;;
19221;SDS011;9745;50.828;4.378;2023-04-24T01:01:29;24.47;;;11.70;;
19221;SDS011;9745;50.828;4.378;2023-04-24T01:03:55;24.13;;;11.23;;
19221;SDS011;9745;50.828;4.378;2023-04-24T01:06:23;23.80;;;11.57;;
19221;SDS011;9745;50.828;4.378;2023-04-24T01:08:49;22.07;;;12.00;;
19221;SDS011;9745;50.828;4.378;2023-04-24T01:11:15;22.67;;;10.73;;
19221;SDS011;9745;50.828;4.378;2023-04-24T01:13:41;23.27;;;11.70;;
19221;SDS011;9745;50.828;4.378;2023-04-24T01:16:07;18.40;;;11.87;;
19221;SDS011;9745;50.828;4.378;2023-04-24T01:18:33;23.13;;;12.33;;
19221;SDS011;9745;50.828;4.378;2023-04-24T01:20:59;17.20;;;11.50;;
19221;SDS011;9745;50.828;4.378;2023-04-24T01:23:28;22.10;;;11.80;;
19221;SDS011;9745;50.828;4.378;2023-04-24T01:25:55;19.63;;;11.53;;
19221;SDS011;9745;50.828;4.378;2023-04-24T01:28:21;18.23;;;11.87;;
19221;SDS011;9745;50.828;4.378;2023-04-24T01:30:47;17.83;;;11.87;;
19221;SDS011;9745;50.828;4.378;2023-04-24T01:33:13;20.40;;;11.07;;
19221;SDS011;9745;50.828;4.378;2023-04-24T01:35:39;21.00;;;11.00;;
19221;SDS011;9745;50.828;4.378;2023-04-24T01:38:05;19.93;;;10.17;;
19221;SDS011;9745;50.828;4.378;2023-04-24T01:40:32;21.77;;;10.63;;
19221;SDS011;9745;50.828;4.378;2023-04-24T01:42:58;17.37;;;10.27;;
19221;SDS011;9745;50.828;4.378;2023-04-24T01:45:24;17.10;;;10.70;;
19221;SDS011;9745;50.828;4.378;2023-04-24T01:47:50;23.70;;;11.13;;
19221;SDS011;9745;50.828;4.378;2023-04-24T01:50:17;22.43;;;12.13;;
19221;SDS011;9745;50.828;4.378;2023-04-24T01:52:44;16.37;;;11.13;;
19221;SDS011;9745;50.828;4.378;2023-04-24T01:55:10;18.17;;;11.93;;
19221;SDS011;9745;50.828;4.378;2023-04-24T01:57:36;19.97;;;12.30;;
19221;SDS011;9745;50.828;4.378;2023-04-24T02:00:03;27.37;;;12.33;;
19221;SDS011;9745;50.828;4.378;2023-04-24T02:02:29;20.13;;;12.70;;
19221;SDS011;9745;50.828;4.378;2023-04-24T02:04:56;23.77;;;12.80;;
19221;SDS011;9745;50.828;4.378;2023-04-24T02:07:22;28.00;;;12.63;;
19221;SDS011;9745;50.828;4.378;2023-04-24T02:09:48;21.73;;;12.50;;
19221;SDS011;9745;50.828;4.378;2023-04-24T02:12:15;19.40;;;12.33;;
19221;SDS011;9745;50.828;4.378;2023-04-24T02:14:42;19.17;;;12.80;;
19221;SDS011;9745;50.828;4.378;2023-04-24T02:17:08;21.67;;;12.37;;
19221;SDS011;9745;50.828;4.378;2023-04-24T02:19:34;20.83;;;13.40;;
19221;SDS011;9745;50.828;4.378;2023-04-24T02:22:00;21.67;;;13.30;;
19221;SDS011;9745;50.828;4.378;2023-04-24T02:24:26;25.73;;;14.37;;
19221;SDS011;9745;50.828;4.378;2023-04-24T02:26:52;20.57;;;12.90;;
19221;SDS011;9745;50.828;4.378;2023-04-24T02:29:18;21.77;;;13.60;;
19221;SDS011;9745;50.828;4.378;2023-04-24T02:31:44;22.27;;;13.20;;
19221;SDS011;9745;50.828;4.378;2023-04-24T02:34:10;28.33;;;13.40;;
19221;SDS011;9745;50.828;4.378;2023-04-24T02:36:36;18.77;;;12.07;;
19221;SDS011;9745;50.828;4.378;2023-04-24T02:39:02;19.03;;;12.27;;
19221;SDS011;9745;50.828;4.378;2023-04-24T02:41:28;21.20;;;13.07;;
19221;SDS011;9745;50.828;4.378;2023-04-24T02:43:57;19.20;;;11.50;;
19221;SDS011;9745;50.828;4.378;2023-04-24T02:46:23;21.83;;;12.73;;
19221;SDS011;9745;50.828;4.378;2023-04-24T02:48:49;18.93;;;12.27;;
19221;SDS011;9745;50.828;4.378;2023-04-24T02:51:15;17.03;;;11.43;;
19221;SDS011;9745;50.828;4.378;2023-04-24T02:53:41;24.67;;;12.00;;
19221;SDS011;9745;50.828;4.378;2023-04-24T02:56:07;26.23;;;12.63;;
19221;SDS011;9745;50.828;4.378;2023-04-24T02:58:33;17.77;;;12.17;;
19221;SDS011;9745;50.828;4.378;2023-04-24T03:01:00;24.83;;;12.63;;
19221;SDS011;9745;50.828;4.378;2023-04-24T03:03:26;20.50;;;12.03;;
19221;SDS011;9745;50.828;4.378;2023-04-24T03:05:52;21.90;;;11.77;;
19221;SDS011;9745;50.828;4.378;2023-04-24T03:08:18;16.40;;;10.70;;
19221;SDS011;9745;50.828;4.378;2023-04-24T03:10:44;16.73;;;9.87;;
19221;SDS011;9745;50.828;4.378;2023-04-24T03:13:10;15.43;;;10.23;;
19221;SDS011;9745;50.828;4.378;2023-04-24T03:15:36;21.83;;;10.13;;
19221;SDS011;9745;50.828;4.378;2023-04-24T03:18:02;16.97;;;9.13;;
19221;SDS011;9745;50.828;4.378;2023-04-24T03:20:28;15.23;;;8.67;;
19221;SDS011;9745;50.828;4.378;2023-04-24T03:22:55;13.30;;;8.73;;
19221;SDS011;9745;50.828;4.378;2023-04-24T03:25:22;13.00;;;9.43;;
19221;SDS011;9745;50.828;4.378;2023-04-24T03:27:48;13.13;;;8.93;;
19221;SDS011;9745;50.828;4.378;2023-04-24T03:30:14;15.37;;;8.97;;
19221;SDS011;9745;50.828;4.378;2023-04-24T03:32:40;18.27;;;8.80;;
19221;SDS011;9745;50.828;4.378;2023-04-24T03:35:06;15.37;;;9.67;;
19221;SDS011;9745;50.828;4.378;2023-04-24T03:37:33;16.93;;;9.73;;
19221;SDS011;9745;50.828;4.378;2023-04-24T03:39:59;15.10;;;8.63;;
19221;SDS011;9745;50.828;4.378;2023-04-24T03:42:25;14.80;;;8.13;;
19221;SDS011;9745;50.828;4.378;2023-04-24T03:44:51;19.67;;;8.87;;
19221;SDS011;9745;50.828;4.378;2023-04-24T03:47:17;15.60;;;8.63;;
19221;SDS011;9745;50.828;4.378;2023-04-24T03:49:44;17.77;;;8.40;;
19221;SDS011;9745;50.828;4.378;2023-04-24T03:52:10;15.87;;;8.40;;
19221;SDS011;9745;50.828;4.378;2023-04-24T03:54:36;12.33;;;8.03;;
19221;SDS011;9745;50.828;4.378;2023-04-24T03:57:02;12.87;;;7.80;;
19221;SDS011;9745;50.828;4.378;2023-04-24T03:59:29;12.37;;;6.93;;
19221;SDS011;9745;50.828;4.378;2023-04-24T04:01:55;8.97;;;6.37;;
19221;SDS011;9745;50.828;4.378;2023-04-24T04:04:21;10.03;;;6.87;;
19221;SDS011;9745;50.828;4.378;2023-04-24T04:06:47;13.27;;;6.53;;
19221;SDS011;9745;50.828;4.378;2023-04-24T04:09:13;15.40;;;6.57;;
19221;SDS011;9745;50.828;4.378;2023-04-24T04:11:40;12.00;;;7.67;;
19221;SDS011;9745;50.828;4.378;2023-04-24T04:14:06;10.67;;;6.13;;
19221;SDS011;9745;50.828;4.378;2023-04-24T04:16:32;9.23;;;6.27;;
19221;SDS011;9745;50.828;4.378;2023-04-24T04:18:58;9.30;;;6.37;;
19221;SDS011;9745;50.828;4.378;2023-04-24T04:21:24;9.63;;;5.83;;
19221;SDS011;9745;50.828;4.378;2023-04-24T04:23:51;12.93;;;6.53;;
19221;SDS011;9745;50.828;4.378;2023-04-24T04:26:17;10.37;;;6.53;;
19221;SDS011;9745;50.828;4.378;2023-04-24T04:28:44;10.33;;;5.90;;
19221;SDS011;9745;50.828;4.378;2023-04-24T04:33:40;9.07;;;6.27;;
19221;SDS011;9745;50.828;4.378;2023-04-24T04:36:06;8.57;;;5.57;;
19221;SDS011;9745;50.828;4.378;2023-04-24T04:38:33;8.67;;;6.20;;
19221;SDS011;9745;50.828;4.378;2023-04-24T04:41:00;9.77;;;6.07;;
19221;SDS011;9745;50.828;4.378;2023-04-24T04:43:27;8.27;;;5.53;;
19221;SDS011;9745;50.828;4.378;2023-04-24T04:45:53;9.63;;;5.73;;
19221;SDS011;9745;50.828;4.378;2023-04-24T04:48:20;12.33;;;6.10;;
19221;SDS011;9745;50.828;4.378;2023-04-24T04:50:47;8.60;;;5.80;;
19221;SDS011;9745;50.828;4.378;2023-04-24T04:53:13;11.27;;;6.90;;
19221;SDS011;9745;50.828;4.378;2023-04-24T04:55:39;14.40;;;6.93;;
19221;SDS011;9745;50.828;4.378;2023-04-24T04:58:05;15.03;;;7.80;;
19221;SDS011;9745;50.828;4.378;2023-04-24T05:00:31;15.57;;;8.63;;
19221;SDS011;9745;50.828;4.378;2023-04-24T05:03:00;17.37;;;8.33;;
19221;SDS011;9745;50.828;4.378;2023-04-24T05:05:26;21.30;;;8.73;;
19221;SDS011;9745;50.828;4.378;2023-04-24T05:07:52;19.43;;;9.33;;
19221;SDS011;9745;50.828;4.378;2023-04-24T05:10:19;20.93;;;9.63;;
19221;SDS011;9745;50.828;4.378;2023-04-24T05:12:44;16.77;;;8.70;;
19221;SDS011;9745;50.828;4.378;2023-04-24T05:15:10;16.23;;;9.33;;
19221;SDS011;9745;50.828;4.378;2023-04-24T05:17:37;21.13;;;11.07;;
19221;SDS011;9745;50.828;4.378;2023-04-24T05:20:04;17.97;;;10.53;;
19221;SDS011;9745;50.828;4.378;2023-04-24T05:22:31;14.97;;;10.23;;
19221;SDS011;9745;50.828;4.378;2023-04-24T05:24:57;17.97;;;10.37;;
19221;SDS011;9745;50.828;4.378;2023-04-24T05:27:23;17.07;;;9.57;;
19221;SDS011;9745;50.828;4.378;2023-04-24T05:29:50;15.33;;;10.20;;
19221;SDS011;9745;50.828;4.378;2023-04-24T05:32:16;23.13;;;11.33;;
19221;SDS011;9745;50.828;4.378;2023-04-24T05:34:42;22.33;;;11.03;;
19221;SDS011;9745;50.828;4.378;2023-04-24T05:37:08;18.90;;;10.23;;
19221;SDS011;9745;50.828;4.378;2023-04-24T05:39:35;20.10;;;11.77;;
19221;SDS011;9745;50.828;4.378;2023-04-24T05:42:01;21.70;;;10.37;;
19221;SDS011;9745;50.828;4.378;2023-04-24T05:44:28;17.47;;;11.27;;
19221;SDS011;9745;50.828;4.378;2023-04-24T05:46:54;15.27;;;9.93;;
19221;SDS011;9745;50.828;4.378;2023-04-24T05:49:20;18.90;;;11.83;;
19221;SDS011;9745;50.828;4.378;2023-04-24T05:51:46;20.33;;;10.57;;
19221;SDS011;9745;50.828;4.378;2023-04-24T05:54:13;17.03;;;10.43;;
19221;SDS011;9745;50.828;4.378;2023-04-24T05:56:39;17.17;;;10.20;;
19221;SDS011;9745;50.828;4.378;2023-04-24T05:59:05;21.53;;;11.10;;
19221;SDS011;9745;50.828;4.378;2023-04-24T06:01:32;20.50;;;10.53;;
19221;SDS011;9745;50.828;4.378;2023-04-24T06:03:58;24.67;;;11.57;;
19221;SDS011;9745;50.828;4.378;2023-04-24T06:06:24;21.60;;;13.20;;
19221;SDS011;9745;50.828;4.378;2023-04-24T06:08:51;25.37;;;11.97;;
19221;SDS011;9745;50.828;4.378;2023-04-24T06:11:16;22.97;;;11.77;;
19221;SDS011;9745;50.828;4.378;2023-04-24T06:13:43;19.90;;;10.80;;
19221;SDS011;9745;50.828;4.378;2023-04-24T06:18:42;19.70;;;11.83;;
19221;SDS011;9745;50.828;4.378;2023-04-24T06:21:08;20.50;;;11.80;;
19221;SDS011;9745;50.828;4.378;2023-04-24T06:23:35;25.07;;;11.30;;
19221;SDS011;9745;50.828;4.378;2023-04-24T06:26:01;23.73;;;11.80;;
19221;SDS011;9745;50.828;4.378;2023-04-24T06:28:27;21.40;;;11.43;;
19221;SDS011;9745;50.828;4.378;2023-04-24T06:30:53;19.87;;;10.87;;
19221;SDS011;9745;50.828;4.378;2023-04-24T06:33:19;20.37;;;12.33;;
19221;SDS011;9745;50.828;4.378;2023-04-24T06:35:45;22.50;;;11.47;;
19221;SDS011;9745;50.828;4.378;2023-04-24T06:38:11;25.33;;;12.40;;
19221;SDS011;9745;50.828;4.378;2023-04-24T06:40:37;20.30;;;12.07;;
19221;SDS011;9745;50.828;4.378;2023-04-24T06:43:03;23.30;;;12.57;;
19221;SDS011;9745;50.828;4.378;2023-04-24T06:45:29;24.17;;;12.70;;
19221;SDS011;9745;50.828;4.378;2023-04-24T06:47:55;25.53;;;12.87;;
19221;SDS011;9745;50.828;4.378;2023-04-24T06:50:21;21.97;;;13.13;;
19221;SDS011;9745;50.828;4.378;2023-04-24T06:52:47;23.17;;;12.77;;
19221;SDS011;9745;50.828;4.378;2023-04-24T06:55:13;25.90;;;13.87;;
19221;SDS011;9745;50.828;4.378;2023-04-24T06:57:41;24.80;;;14.30;;
19221;SDS011;9745;50.828;4.378;2023-04-24T07:00:07;24.90;;;12.77;;
19221;SDS011;9745;50.828;4.378;2023-04-24T07:02:34;27.83;;;14.63;;
19221;SDS011;9745;50.828;4.378;2023-04-24T07:05:00;23.73;;;13.27;;
19221;SDS011;9745;50.828;4.378;2023-04-24T07:07:26;26.93;;;13.93;;
19221;SDS011;9745;50.828;4.378;2023-04-24T07:09:52;24.37;;;13.30;;
19221;SDS011;9745;50.828;4.378;2023-04-24T07:12:19;28.60;;;13.87;;
19221;SDS011;9745;50.828;4.378;2023-04-24T07:14:46;29.20;;;13.20;;
19221;SDS011;9745;50.828;4.378;2023-04-24T07:17:12;28.87;;;13.73;;
19221;SDS011;9745;50.828;4.378;2023-04-24T07:19:39;23.57;;;12.03;;
19221;SDS011;9745;50.828;4.378;2023-04-24T07:22:05;21.53;;;11.97;;
19221;SDS011;9745;50.828;4.378;2023-04-24T07:24:31;31.67;;;12.43;;
19221;SDS011;9745;50.828;4.378;2023-04-24T07:26:57;21.90;;;11.73;;
19221;SDS011;9745;50.828;4.378;2023-04-24T07:29:24;17.43;;;10.53;;
19221;SDS011;9745;50.828;4.378;2023-04-24T07:31:50;21.43;;;11.13;;
19221;SDS011;9745;50.828;4.378;2023-04-24T07:34:16;18.73;;;10.97;;
19221;SDS011;9745;50.828;4.378;2023-04-24T07:36:42;22.10;;;10.90;;
19221;SDS011;9745;50.828;4.378;2023-04-24T07:39:08;17.23;;;10.07;;
19221;SDS011;9745;50.828;4.378;2023-04-24T07:41:34;23.13;;;11.10;;
19221;SDS011;9745;50.828;4.378;2023-04-24T07:44:00;21.87;;;10.20;;
19221;SDS011;9745;50.828;4.378;2023-04-24T07:46:26;21.20;;;10.97;;
19221;SDS011;9745;50.828;4.378;2023-04-24T07:48:54;19.77;;;10.93;;
19221;SDS011;9745;50.828;4.378;2023-04-24T07:51:21;22.23;;;11.43;;
19221;SDS011;9745;50.828;4.378;2023-04-24T07:53:52;21.90;;;10.63;;
19221;SDS011;9745;50.828;4.378;2023-04-24T07:56:17;28.57;;;11.43;;
19221;SDS011;9745;50.828;4.378;2023-04-24T07:58:44;24.73;;;11.07;;
19221;SDS011;9745;50.828;4.378;2023-04-24T08:01:10;16.77;;;9.83;;
19221;SDS011;9745;50.828;4.378;2023-04-24T08:03:36;15.97;;;10.57;;
19221;SDS011;9745;50.828;4.378;2023-04-24T08:06:02;20.87;;;9.90;;
19221;SDS011;9745;50.828;4.378;2023-04-24T08:08:28;19.17;;;9.93;;
19221;SDS011;9745;50.828;4.378;2023-04-24T08:10:54;19.43;;;9.17;;
19221;SDS011;9745;50.828;4.378;2023-04-24T08:13:20;15.07;;;8.50;;
19221;SDS011;9745;50.828;4.378;2023-04-24T08:15:46;20.13;;;9.30;;
19221;SDS011;9745;50.828;4.378;2023-04-24T08:18:12;16.50;;;8.07;;
19221;SDS011;9745;50.828;4.378;2023-04-24T08:20:40;19.63;;;7.47;;
19221;SDS011;9745;50.828;4.378;2023-04-24T08:23:06;16.33;;;7.60;;
19221;SDS011;9745;50.828;4.378;2023-04-24T08:25:32;19.43;;;7.40;;
19221;SDS011;9745;50.828;4.378;2023-04-24T08:28:00;16.77;;;7.07;;
19221;SDS011;9745;50.828;4.378;2023-04-24T08:30:26;13.60;;;6.80;;
19221;SDS011;9745;50.828;4.378;2023-04-24T08:32:52;12.30;;;6.73;;
19221;SDS011;9745;50.828;4.378;2023-04-24T08:35:18;10.37;;;6.23;;
19221;SDS011;9745;50.828;4.378;2023-04-24T08:37:44;15.07;;;6.40;;
19221;SDS011;9745;50.828;4.378;2023-04-24T08:40:13;10.60;;;6.03;;
19221;SDS011;9745;50.828;4.378;2023-04-24T08:42:41;15.23;;;6.60;;
19221;SDS011;9745;50.828;4.378;2023-04-24T08:45:08;11.70;;;6.00;;
19221;SDS011;9745;50.828;4.378;2023-04-24T08:47:34;10.27;;;5.53;;
19221;SDS011;9745;50.828;4.378;2023-04-24T08:50:02;12.43;;;5.40;;
19221;SDS011;9745;50.828;4.378;2023-04-24T08:52:28;14.07;;;5.90;;
19221;SDS011;9745;50.828;4.378;2023-04-24T08:54:54;10.03;;;6.00;;
19221;SDS011;9745;50.828;4.378;2023-04-24T08:57:20;12.43;;;5.60;;
19221;SDS011;9745;50.828;4.378;2023-04-24T08:59:47;11.07;;;4.87;;
19221;SDS011;9745;50.828;4.378;2023-04-24T09:02:13;12.17;;;5.20;;
19221;SDS011;9745;50.828;4.378;2023-04-24T09:04:40;12.73;;;4.50;;
19221;SDS011;9745;50.828;4.378;2023-04-24T09:07:06;9.90;;;4.40;;
19221;SDS011;9745;50.828;4.378;2023-04-24T09:09:33;11.53;;;4.20;;
19221;SDS011;9745;50.828;4.378;2023-04-24T09:11:59;10.47;;;4.43;;
19221;SDS011;9745;50.828;4.378;2023-04-24T09:14:26;10.27;;;4.37;;
19221;SDS011;9745;50.828;4.378;2023-04-24T09:16:53;8.80;;;4.03;;
19221;SDS011;9745;50.828;4.378;2023-04-24T09:19:19;9.17;;;4.50;;
19221;SDS011;9745;50.828;4.378;2023-04-24T09:21:46;9.43;;;4.07;;
19221;SDS011;9745;50.828;4.378;2023-04-24T09:24:16;12.50;;;5.03;;
19221;SDS011;9745;50.828;4.378;2023-04-24T09:26:42;14.70;;;7.60;;
19221;SDS011;9745;50.828;4.378;2023-04-24T09:29:13;7.73;;;3.90;;
19221;SDS011;9745;50.828;4.378;2023-04-24T09:31:40;12.70;;;4.07;;
19221;SDS011;9745;50.828;4.378;2023-04-24T09:34:06;9.90;;;3.80;;
19221;SDS011;9745;50.828;4.378;2023-04-24T09:36:36;8.87;;;3.70;;
19221;SDS011;9745;50.828;4.378;2023-04-24T09:39:03;15.50;;;3.83;;
19221;SDS011;9745;50.828;4.378;2023-04-24T09:41:31;7.83;;;4.60;;
19221;SDS011;9745;50.828;4.378;2023-04-24T09:43:58;7.57;;;3.47;;
19221;SDS011;9745;50.828;4.378;2023-04-24T09:46:30;11.27;;;3.43;;
19221;SDS011;9745;50.828;4.378;2023-04-24T09:49:07;9.03;;;3.30;;
19221;SDS011;9745;50.828;4.378;2023-04-24T09:51:35;5.40;;;2.97;;
19221;SDS011;9745;50.828;4.378;2023-04-24T09:54:02;9.77;;;4.00;;
19221;SDS011;9745;50.828;4.378;2023-04-24T09:56:28;7.90;;;3.57;;
19221;SDS011;9745;50.828;4.378;2023-04-24T09:59:07;8.90;;;3.90;;
19221;SDS011;9745;50.828;4.378;2023-04-24T10:01:33;12.77;;;3.67;;
19221;SDS011;9745;50.828;4.378;2023-04-24T10:03:59;7.53;;;3.57;;
19221;SDS011;9745;50.828;4.378;2023-04-24T10:06:35;7.67;;;3.70;;
19221;SDS011;9745;50.828;4.378;2023-04-24T10:09:01;9.07;;;3.83;;
19221;SDS011;9745;50.828;4.378;2023-04-24T10:11:28;7.13;;;4.03;;
19221;SDS011;9745;50.828;4.378;2023-04-24T10:13:55;7.13;;;3.30;;
19221;SDS011;9745;50.828;4.378;2023-04-24T10:16:22;10.23;;;3.57;;
19221;SDS011;9745;50.828;4.378;2023-04-24T10:18:49;10.30;;;3.50;;
19221;SDS011;9745;50.828;4.378;2023-04-24T10:21:15;11.93;;;3.67;;
19221;SDS011;9745;50.828;4.378;2023-04-24T10:23:42;8.00;;;3.40;;
19221;SDS011;9745;50.828;4.378;2023-04-24T10:26:10;11.20;;;4.53;;
19221;SDS011;9745;50.828;4.378;2023-04-24T10:28:42;8.10;;;4.00;;
19221;SDS011;9745;50.828;4.378;2023-04-24T10:31:09;10.67;;;4.10;;
19221;SDS011;9745;50.828;4.378;2023-04-24T10:33:35;9.23;;;3.90;;
19221;SDS011;9745;50.828;4.378;2023-04-24T10:36:01;7.33;;;4.10;;
19221;SDS011;9745;50.828;4.378;2023-04-24T10:38:27;9.60;;;4.27;;
19221;SDS011;9745;50.828;4.378;2023-04-24T10:40:57;8.47;;;4.73;;
19221;SDS011;9745;50.828;4.378;2023-04-24T10:43:23;12.77;;;4.33;;
19221;SDS011;9745;50.828;4.378;2023-04-24T10:46:02;9.33;;;4.00;;
19221;SDS011;9745;50.828;4.378;2023-04-24T10:48:28;9.20;;;5.00;;
19221;SDS011;9745;50.828;4.378;2023-04-24T10:50:54;6.93;;;3.73;;
19221;SDS011;9745;50.828;4.378;2023-04-24T10:53:24;8.40;;;4.77;;
19221;SDS011;9745;50.828;4.378;2023-04-24T10:56:00;11.13;;;5.37;;
19221;SDS011;9745;50.828;4.378;2023-04-24T11:01:27;8.30;;;4.47;;
19221;SDS011;9745;50.828;4.378;2023-04-24T11:03:54;11.83;;;5.30;;
19221;SDS011;9745;50.828;4.378;2023-04-24T11:06:31;5.43;;;3.97;;
19221;SDS011;9745;50.828;4.378;2023-04-24T11:09:04;9.50;;;4.30;;
19221;SDS011;9745;50.828;4.378;2023-04-24T11:11:31;7.50;;;3.80;;
19221;SDS011;9745;50.828;4.378;2023-04-24T11:16:30;10.70;;;4.27;;
19221;SDS011;9745;50.828;4.378;2023-04-24T11:19:04;7.43;;;3.70;;
19221;SDS011;9745;50.828;4.378;2023-04-24T11:21:31;7.93;;;3.80;;
19221;SDS011;9745;50.828;4.378;2023-04-24T11:23:57;6.93;;;3.73;;
19221;SDS011;9745;50.828;4.378;2023-04-24T11:26:23;7.73;;;3.80;;
19221;SDS011;9745;50.828;4.378;2023-04-24T11:28:55;6.23;;;3.73;;
19221;SDS011;9745;50.828;4.378;2023-04-24T11:31:35;8.33;;;4.30;;
19221;SDS011;9745;50.828;4.378;2023-04-24T11:34:08;8.43;;;4.37;;
19221;SDS011;9745;50.828;4.378;2023-04-24T11:36:34;6.63;;;4.17;;
19221;SDS011;9745;50.828;4.378;2023-04-24T11:39:01;9.23;;;4.67;;
19221;SDS011;9745;50.828;4.378;2023-04-24T11:41:27;10.27;;;4.67;;
19221;SDS011;9745;50.828;4.378;2023-04-24T11:43:53;11.13;;;4.63;;
19221;SDS011;9745;50.828;4.378;2023-04-24T11:46:22;7.43;;;4.00;;
19221;SDS011;9745;50.828;4.378;2023-04-24T11:48:48;7.20;;;4.40;;
19221;SDS011;9745;50.828;4.378;2023-04-24T11:51:14;6.70;;;4.33;;
19221;SDS011;9745;50.828;4.378;2023-04-24T11:53:40;8.67;;;4.67;;
19221;SDS011;9745;50.828;4.378;2023-04-24T11:56:08;9.97;;;4.83;;
19221;SDS011;9745;50.828;4.378;2023-04-24T11:58:35;10.87;;;5.07;;
19221;SDS011;9745;50.828;4.378;2023-04-24T12:01:01;9.63;;;5.40;;
19221;SDS011;9745;50.828;4.378;2023-04-24T12:03:27;10.90;;;4.77;;
19221;SDS011;9745;50.828;4.378;2023-04-24T12:06:04;9.80;;;4.77;;
19221;SDS011;9745;50.828;4.378;2023-04-24T12:08:31;10.37;;;4.87;;
19221;SDS011;9745;50.828;4.378;2023-04-24T12:10:57;8.30;;;4.90;;
19221;SDS011;9745;50.828;4.378;2023-04-24T12:13:25;8.80;;;4.97;;
19221;SDS011;9745;50.828;4.378;2023-04-24T12:15:51;9.53;;;4.57;;
19221;SDS011;9745;50.828;4.378;2023-04-24T12:18:17;7.93;;;4.87;;
19221;SDS011;9745;50.828;4.378;2023-04-24T12:20:43;7.97;;;4.90;;
19221;SDS011;9745;50.828;4.378;2023-04-24T12:23:09;6.70;;;4.50;;
19221;SDS011;9745;50.828;4.378;2023-04-24T12:25:35;6.90;;;4.40;;
19221;SDS011;9745;50.828;4.378;2023-04-24T12:30:31;8.77;;;4.67;;
19221;SDS011;9745;50.828;4.378;2023-04-24T12:32:58;10.93;;;5.20;;
19221;SDS011;9745;50.828;4.378;2023-04-24T12:35:26;7.77;;;4.90;;
19221;SDS011;9745;50.828;4.378;2023-04-24T12:37:53;8.80;;;5.60;;
19221;SDS011;9745;50.828;4.378;2023-04-24T12:40:19;9.97;;;4.70;;
19221;SDS011;9745;50.828;4.378;2023-04-24T12:42:50;7.67;;;4.47;;
19221;SDS011;9745;50.828;4.378;2023-04-24T12:45:16;9.47;;;4.57;;
19221;SDS011;9745;50.828;4.378;2023-04-24T12:47:43;8.10;;;4.40;;
19221;SDS011;9745;50.828;4.378;2023-04-24T12:50:10;7.87;;;4.50;;
19221;SDS011;9745;50.828;4.378;2023-04-24T12:52:36;8.70;;;4.63;;
19221;SDS011;9745;50.828;4.378;2023-04-24T12:55:02;8.53;;;4.73;;
19221;SDS011;9745;50.828;4.378;2023-04-24T12:57:30;10.40;;;4.17;;
19221;SDS011;9745;50.828;4.378;2023-04-24T12:59:57;7.97;;;3.60;;
19221;SDS011;9745;50.828;4.378;2023-04-24T13:02:24;7.00;;;3.80;;
19221;SDS011;9745;50.828;4.378;2023-04-24T13:04:51;8.93;;;4.17;;
19221;SDS011;9745;50.828;4.378;2023-04-24T13:07:17;6.63;;;3.50;;
19221;SDS011;9745;50.828;4.378;2023-04-24T13:09:43;7.50;;;4.00;;
19221;SDS011;9745;50.828;4.378;2023-04-24T13:12:10;6.87;;;4.00;;
19221;SDS011;9745;50.828;4.378;2023-04-24T13:14:36;10.20;;;5.03;;
19221;SDS011;9745;50.828;4.378;2023-04-24T13:17:02;4.53;;;3.10;;
19221;SDS011;9745;50.828;4.378;2023-04-24T13:19:29;8.90;;;3.33;;
19221;SDS011;9745;50.828;4.378;2023-04-24T13:21:55;8.63;;;3.50;;
19221;SDS011;9745;50.828;4.378;2023-04-24T13:24:25;8.20;;;3.50;;
19221;SDS011;9745;50.828;4.378;2023-04-24T13:26:51;5.53;;;3.07;;
19221;SDS011;9745;50.828;4.378;2023-04-24T13:29:17;8.20;;;4.20;;
19221;SDS011;9745;50.828;4.378;2023-04-24T13:31:43;5.10;;;3.17;;
19221;SDS011;9745;50.828;4.378;2023-04-24T13:34:10;8.87;;;3.70;;
19221;SDS011;9745;50.828;4.378;2023-04-24T13:36:36;4.77;;;3.20;;
19221;SDS011;9745;50.828;4.378;2023-04-24T13:39:02;7.10;;;2.77;;
19221;SDS011;9745;50.828;4.378;2023-04-24T13:41:29;8.17;;;3.30;;
19221;SDS011;9745;50.828;4.378;2023-04-24T13:43:55;4.53;;;2.57;;
19221;SDS011;9745;50.828;4.378;2023-04-24T13:46:21;8.00;;;2.60;;
19221;SDS011;9745;50.828;4.378;2023-04-24T13:48:47;7.57;;;2.63;;
19221;SDS011;9745;50.828;4.378;2023-04-24T13:51:13;10.03;;;3.00;;
19221;SDS011;9745;50.828;4.378;2023-04-24T13:53:39;4.43;;;2.77;;
19221;SDS011;9745;50.828;4.378;2023-04-24T13:56:05;5.33;;;2.60;;
19221;SDS011;9745;50.828;4.378;2023-04-24T13:58:31;7.03;;;3.03;;
19221;SDS011;9745;50.828;4.378;2023-04-24T14:00:57;6.30;;;2.60;;
19221;SDS011;9745;50.828;4.378;2023-04-24T14:03:23;6.97;;;2.40;;
19221;SDS011;9745;50.828;4.378;2023-04-24T14:05:50;5.60;;;2.27;;
19221;SDS011;9745;50.828;4.378;2023-04-24T14:08:16;10.03;;;2.83;;
19221;SDS011;9745;50.828;4.378;2023-04-24T14:10:42;4.37;;;2.30;;
19221;SDS011;9745;50.828;4.378;2023-04-24T14:13:08;20.93;;;4.10;;
19221;SDS011;9745;50.828;4.378;2023-04-24T14:15:38;6.03;;;2.17;;
19221;SDS011;9745;50.828;4.378;2023-04-24T14:18:04;5.23;;;1.90;;
19221;SDS011;9745;50.828;4.378;2023-04-24T14:20:30;5.30;;;2.50;;
19221;SDS011;9745;50.828;4.378;2023-04-24T14:22:57;4.10;;;1.60;;
19221;SDS011;9745;50.828;4.378;2023-04-24T14:25:24;7.10;;;1.77;;
19221;SDS011;9745;50.828;4.378;2023-04-24T14:27:50;3.83;;;1.70;;
19221;SDS011;9745;50.828;4.378;2023-04-24T14:30:16;5.57;;;2.27;;
19221;SDS011;9745;50.828;4.378;2023-04-24T14:32:42;5.57;;;2.30;;
19221;SDS011;9745;50.828;4.378;2023-04-24T14:35:08;7.67;;;3.53;;
19221;SDS011;9745;50.828;4.378;2023-04-24T14:37:34;4.60;;;2.30;;
19221;SDS011;9745;50.828;4.378;2023-04-24T14:40:01;4.60;;;2.10;;
19221;SDS011;9745;50.828;4.378;2023-04-24T14:42:27;2.87;;;1.80;;
19221;SDS011;9745;50.828;4.378;2023-04-24T14:44:53;4.17;;;1.40;;
19221;SDS011;9745;50.828;4.378;2023-04-24T14:47:20;5.33;;;1.43;;
19221;SDS011;9745;50.828;4.378;2023-04-24T14:49:48;3.43;;;1.90;;
19221;SDS011;9745;50.828;4.378;2023-04-24T14:52:14;3.83;;;1.57;;
19221;SDS011;9745;50.828;4.378;2023-04-24T14:54:41;5.57;;;1.80;;
19221;SDS011;9745;50.828;4.378;2023-04-24T14:57:07;6.40;;;1.50;;